Time;durP1;ratioP1;P1;durP2;ratioP2;P2;SDS_P1;SDS_P2;PMS_P1;PMS_P2;Temp;Humidity;BMP_temperature;BMP_pressure;BME280_temperature;BME280_humidity;BME280_pressure;Samples;Min_cycle;Max_cycle;Signal;HPM_P1;HPM_P2
2022/11/09 00:01:30;;;;;;;6.97;4.13;;;5.20;99.90;;;;;;5049382;28;20543;-81
2022/11/09 00:04:01;;;;;;;7.27;4.23;;;5.10;99.90;;;;;;5049332;28;20085;-81
2022/11/09 00:06:28;;;;;;;6.00;3.70;;;5.10;99.90;;;;;;5049622;28;20028;-81
2022/11/09 00:08:54;;;;;;;7.10;4.37;;;5.10;99.90;;;;;;5049326;28;20036;-81
2022/11/09 00:11:19;;;;;;;7.97;4.23;;;5.10;99.90;;;;;;5049822;28;20512;-81
2022/11/09 00:13:46;;;;;;;5.23;3.60;;;5.00;99.90;;;;;;5049337;28;20025;-81
2022/11/09 00:16:14;;;;;;;4.93;3.43;;;5.00;99.90;;;;;;5049579;28;20037;-81
2022/11/09 00:18:46;;;;;;;5.73;3.80;;;5.00;99.90;;;;;;5049352;28;20498;-81
2022/11/09 00:21:16;;;;;;;8.33;4.03;;;5.00;99.90;;;;;;5049675;28;20029;-81
2022/11/09 00:23:43;;;;;;;6.37;3.93;;;4.90;99.90;;;;;;5047860;28;20037;-81
2022/11/09 00:26:11;;;;;;;6.40;4.07;;;4.90;99.90;;;;;;5049171;28;20033;-81
2022/11/09 00:28:37;;;;;;;6.50;3.73;;;4.90;99.90;;;;;;5049285;28;20040;-81
2022/11/09 00:31:06;;;;;;;7.67;4.00;;;4.90;99.90;;;;;;5049541;28;20029;-81
2022/11/09 00:33:33;;;;;;;7.00;3.93;;;4.90;99.90;;;;;;5050574;28;20037;-81
2022/11/09 00:36:08;;;;;;;8.10;4.60;;;4.80;99.90;;;;;;5053153;28;20029;-81
2022/11/09 00:38:35;;;;;;;8.05;4.32;;;4.80;99.90;;;;;;5052580;28;20175;-81
2022/11/09 00:41:05;;;;;;;7.40;4.23;;;4.80;99.90;;;;;;5052862;28;20401;-81
2022/11/09 00:43:31;;;;;;;6.47;3.87;;;4.80;99.90;;;;;;5052604;28;20021;-81
2022/11/09 00:45:57;;;;;;;8.43;4.33;;;4.80;99.90;;;;;;5052767;28;20350;-81
2022/11/09 00:48:22;;;;;;;10.23;4.57;;;4.80;99.90;;;;;;5052506;28;20021;-81
2022/11/09 00:50:52;;;;;;;9.33;4.03;;;4.80;99.90;;;;;;5052797;28;20029;-81
2022/11/09 00:53:18;;;;;;;6.37;3.97;;;4.70;99.90;;;;;;5052335;28;20040;-81
2022/11/09 00:55:55;;;;;;;5.77;4.03;;;4.70;99.90;;;;;;5052455;28;20036;-81
2022/11/09 00:58:24;;;;;;;8.00;4.00;;;4.70;99.90;;;;;;5052182;28;20544;-81
2022/11/09 01:00:50;;;;;;;8.87;4.13;;;4.70;99.90;;;;;;5052759;28;20159;-81
2022/11/09 01:03:16;;;;;;;5.93;3.80;;;4.70;99.90;;;;;;5052375;28;20037;-81
2022/11/09 01:05:42;;;;;;;7.77;3.97;;;4.60;99.90;;;;;;5052301;28;20355;-81
2022/11/09 01:08:08;;;;;;;7.80;3.93;;;4.60;99.90;;;;;;5052220;28;20049;-81
2022/11/09 01:10:33;;;;;;;5.50;3.60;;;4.60;99.90;;;;;;5052290;28;20078;-81
2022/11/09 01:12:59;;;;;;;5.97;3.73;;;4.60;99.90;;;;;;5052288;28;20107;-81
2022/11/09 01:15:25;;;;;;;5.87;3.77;;;4.60;99.90;;;;;;5052407;28;20485;-81
2022/11/09 01:17:50;;;;;;;7.97;3.63;;;4.60;99.90;;;;;;5051946;28;20084;-81
2022/11/09 01:20:16;;;;;;;5.90;3.57;;;4.60;99.90;;;;;;5052129;28;20033;-81
2022/11/09 01:22:42;;;;;;;6.20;3.90;;;4.60;99.90;;;;;;5052062;28;20051;-81
2022/11/09 01:25:09;;;;;;;7.10;3.60;;;4.50;99.90;;;;;;5051967;28;20025;-81
2022/11/09 01:27:35;;;;;;;7.37;3.47;;;4.50;99.90;;;;;;5052083;28;20461;-81
2022/11/09 01:30:00;;;;;;;7.47;3.70;;;4.50;99.90;;;;;;5051976;28;20025;-81
2022/11/09 01:32:26;;;;;;;6.83;3.60;;;4.50;99.90;;;;;;5052027;28;20047;-81
2022/11/09 01:34:52;;;;;;;4.83;3.77;;;4.50;99.90;;;;;;5051514;28;20072;-81
2022/11/09 01:37:17;;;;;;;6.57;3.70;;;4.50;99.90;;;;;;5051867;28;20029;-81
2022/11/09 01:39:43;;;;;;;4.37;3.30;;;4.40;99.90;;;;;;5051719;28;20029;-81
2022/11/09 01:42:08;;;;;;;4.80;3.40;;;4.40;99.90;;;;;;5051998;28;20040;-81
2022/11/09 01:44:37;;;;;;;5.20;3.57;;;4.40;99.90;;;;;;5051412;28;20029;-81
2022/11/09 01:47:24;;;;;;;9.17;3.97;;;4.30;99.90;;;;;;5052037;28;20526;-81
2022/11/09 01:49:55;;;;;;;6.57;3.70;;;4.30;99.90;;;;;;5051713;28;20021;-81
2022/11/09 01:52:40;;;;;;;6.50;3.60;;;4.30;99.90;;;;;;5051641;28;20049;-81
2022/11/09 01:55:08;;;;;;;;;;;4.20;99.90;;;;;;5051913;28;20021;-81
2022/11/09 01:58:01;;;;;;;6.67;3.77;;;4.20;99.90;;;;;;5051560;28;20404;-81
2022/11/09 02:00:27;;;;;;;6.73;3.53;;;4.20;99.90;;;;;;5051429;28;20021;-81
2022/11/09 02:03:01;;;;;;;5.43;3.60;;;4.20;99.90;;;;;;5051252;28;20044;-81
2022/11/09 02:05:30;;;;;;;6.07;3.33;;;4.20;99.90;;;;;;5051270;28;20420;-81
2022/11/09 02:07:56;;;;;;;5.97;3.73;;;4.20;99.90;;;;;;5051220;28;20082;-81
2022/11/09 02:10:32;;;;;;;5.93;3.77;;;4.20;99.90;;;;;;5051056;28;20021;-81
2022/11/09 02:12:59;;;;;;;10.57;4.17;;;4.10;99.90;;;;;;5051083;28;20040;-81
2022/11/09 02:15:25;;;;;;;4.60;3.30;;;4.10;99.90;;;;;;5050915;28;20074;-81
2022/11/09 02:17:53;;;;;;;6.60;3.33;;;4.10;99.90;;;;;;5049826;28;20041;-81
2022/11/09 02:20:20;;;;;;;6.93;3.80;;;4.10;99.90;;;;;;5049361;28;20025;-81
2022/11/09 02:22:46;;;;;;;5.30;3.10;;;4.10;99.90;;;;;;5050789;28;20029;-81
2022/11/09 02:25:16;;;;;;;5.77;3.83;;;4.10;99.90;;;;;;5050976;28;20029;-81
2022/11/09 02:27:43;;;;;;;5.70;3.07;;;4.10;99.90;;;;;;5050856;28;20474;-81
2022/11/09 02:30:09;;;;;;;4.70;3.00;;;4.10;99.90;;;;;;5050681;28;20029;-81
2022/11/09 02:32:35;;;;;;;7.67;3.30;;;4.00;99.90;;;;;;5050778;28;20044;-81
2022/11/09 02:35:01;;;;;;;6.13;3.57;;;4.10;99.90;;;;;;5050782;28;20021;-81
2022/11/09 02:37:48;;;;;;;5.50;3.40;;;4.00;99.90;;;;;;5050830;28;20021;-81
2022/11/09 02:40:19;;;;;;;5.77;3.23;;;4.10;99.90;;;;;;5050574;28;20036;-81
2022/11/09 02:42:45;;;;;;;4.67;2.60;;;4.00;99.90;;;;;;5050475;28;20028;-81
2022/11/09 02:45:11;;;;;;;5.20;2.70;;;4.00;99.90;;;;;;5050354;28;20044;-81
2022/11/09 02:47:36;;;;;;;5.20;2.87;;;4.00;99.90;;;;;;5050601;28;20025;-81
2022/11/09 02:50:03;;;;;;;4.97;3.30;;;4.10;99.90;;;;;;5050466;28;20091;-81
2022/11/09 02:52:29;;;;;;;3.87;2.60;;;4.10;99.90;;;;;;5050870;28;20072;-81
2022/11/09 02:54:54;;;;;;;4.90;3.10;;;4.10;99.90;;;;;;5049809;28;20478;-81
2022/11/09 02:57:20;;;;;;;5.00;3.00;;;4.10;99.90;;;;;;5050506;28;20024;-81
2022/11/09 02:59:45;;;;;;;9.03;4.70;;;4.10;99.90;;;;;;5050211;28;20029;-81
2022/11/09 03:02:11;;;;;;;4.90;2.93;;;4.10;99.90;;;;;;5050002;28;20036;-81
2022/11/09 03:04:36;;;;;;;39.30;15.63;;;4.10;99.90;;;;;;5050143;28;20029;-81
2022/11/09 03:07:02;;;;;;;47.63;20.70;;;4.00;99.90;;;;;;5050513;28;20049;-81
2022/11/09 03:09:27;;;;;;;22.27;10.23;;;4.00;99.90;;;;;;5050168;28;20025;-81
2022/11/09 03:11:53;;;;;;;11.70;5.90;;;4.00;99.90;;;;;;5050312;28;20060;-81
2022/11/09 03:14:19;;;;;;;9.70;4.87;;;4.00;99.90;;;;;;5049854;28;20037;-81
2022/11/09 03:16:44;;;;;;;8.77;4.67;;;4.00;99.90;;;;;;5050200;28;20033;-81
2022/11/09 03:19:10;;;;;;;9.30;4.87;;;4.00;99.90;;;;;;5049580;28;20673;-81
2022/11/09 03:21:36;;;;;;;8.83;4.13;;;4.00;99.90;;;;;;5050165;28;20027;-81
2022/11/09 03:24:01;;;;;;;7.00;3.80;;;4.00;99.90;;;;;;5049302;28;20362;-81
2022/11/09 03:26:27;;;;;;;5.67;3.30;;;4.00;99.90;;;;;;5050243;28;20052;-81
2022/11/09 03:28:52;;;;;;;6.03;3.27;;;4.00;99.90;;;;;;5049958;28;20814;-81
2022/11/09 03:31:18;;;;;;;9.07;3.00;;;4.00;99.90;;;;;;5049703;28;20024;-81
2022/11/09 03:33:44;;;;;;;4.30;2.83;;;4.00;99.90;;;;;;5049703;28;20054;-81
2022/11/09 03:36:09;;;;;;;8.83;2.90;;;4.00;99.90;;;;;;5049762;28;20044;-81
2022/11/09 03:38:35;;;;;;;4.37;2.67;;;4.00;99.90;;;;;;5049761;28;20071;-81
2022/11/09 03:41:01;;;;;;;5.00;2.70;;;4.00;99.90;;;;;;5049713;28;20090;-81
2022/11/09 03:43:27;;;;;;;6.10;3.13;;;4.10;99.90;;;;;;5049998;28;20381;-81
2022/11/09 03:45:54;;;;;;;4.70;2.60;;;4.00;99.90;;;;;;5049726;28;20027;-81
2022/11/09 03:48:20;;;;;;;8.07;2.70;;;4.10;99.90;;;;;;5049815;28;20021;-81
2022/11/09 03:50:45;;;;;;;3.53;2.20;;;4.10;99.90;;;;;;5049667;28;20024;-81
2022/11/09 03:53:11;;;;;;;3.77;2.37;;;4.10;99.90;;;;;;5048648;28;20036;-81
2022/11/09 03:55:37;;;;;;;4.77;2.30;;;4.10;99.90;;;;;;5049506;28;20021;-82
2022/11/09 03:58:04;;;;;;;3.97;2.30;;;4.10;99.90;;;;;;5049846;28;20037;-81
2022/11/09 04:00:31;;;;;;;4.87;2.33;;;4.20;99.90;;;;;;5049219;28;20118;-81
2022/11/09 04:02:56;;;;;;;3.77;2.23;;;4.20;99.90;;;;;;5049496;28;20036;-81
2022/11/09 04:05:22;;;;;;;4.17;2.37;;;4.30;99.90;;;;;;5049661;28;20021;-81
2022/11/09 04:07:56;;;;;;;6.20;2.50;;;4.30;99.90;;;;;;5051808;28;20126;-81
2022/11/09 04:10:23;;;;;;;4.83;2.53;;;4.40;99.90;;;;;;5053141;28;20025;-81
2022/11/09 04:12:50;;;;;;;4.20;2.17;;;4.30;99.90;;;;;;5053446;28;20055;-81
2022/11/09 04:15:15;;;;;;;4.50;2.37;;;4.40;99.90;;;;;;5053876;28;20155;-81
2022/11/09 04:17:43;;;;;;;3.77;2.50;;;4.40;99.90;;;;;;5053147;28;20128;-81
2022/11/09 04:20:09;;;;;;;3.13;2.07;;;4.40;99.90;;;;;;5052870;28;20112;-81
2022/11/09 04:22:35;;;;;;;5.40;2.10;;;4.50;99.90;;;;;;5053014;28;20144;-81
2022/11/09 04:25:01;;;;;;;3.93;2.20;;;4.50;99.90;;;;;;5052887;28;20149;-81
2022/11/09 04:27:28;;;;;;;5.83;2.57;;;4.60;99.90;;;;;;5053167;28;20040;-81
2022/11/09 04:29:54;;;;;;;2.90;2.03;;;4.60;99.90;;;;;;5052736;28;20167;-81
2022/11/09 04:32:19;;;;;;;3.40;2.20;;;4.70;99.90;;;;;;5052825;28;20104;-81
2022/11/09 04:34:45;;;;;;;3.37;2.10;;;4.70;99.90;;;;;;5053100;28;20025;-81
2022/11/09 04:37:11;;;;;;;4.40;2.40;;;4.80;99.90;;;;;;5051731;28;20490;-81
2022/11/09 04:39:36;;;;;;;3.67;2.03;;;4.80;99.90;;;;;;5053159;28;20104;-81
2022/11/09 04:42:02;;;;;;;3.33;2.00;;;4.90;99.90;;;;;;5053026;28;20694;-81
2022/11/09 04:44:30;;;;;;;3.97;1.90;;;4.90;99.90;;;;;;5052879;28;20150;-81
2022/11/09 04:46:56;;;;;;;5.57;1.93;;;5.00;99.90;;;;;;5052713;28;20074;-81
2022/11/09 04:49:21;;;;;;;4.20;1.90;;;5.10;99.90;;;;;;5052728;28;20032;-81
2022/11/09 04:51:47;;;;;;;4.17;2.07;;;5.10;99.90;;;;;;5052287;28;20052;-81
2022/11/09 04:54:12;;;;;;;6.13;2.23;;;5.20;99.90;;;;;;5051387;28;20025;-81
2022/11/09 04:56:38;;;;;;;4.13;2.33;;;5.20;99.90;;;;;;5052423;28;20028;-81
2022/11/09 04:59:04;;;;;;;3.80;2.30;;;5.20;99.90;;;;;;5052715;28;20064;-81
2022/11/09 05:01:29;;;;;;;3.43;2.17;;;5.20;99.90;;;;;;5052400;28;20146;-81
2022/11/09 05:03:55;;;;;;;3.40;2.10;;;5.20;99.90;;;;;;5052387;28;20167;-81
2022/11/09 05:06:33;;;;;;;4.10;2.40;;;5.20;99.90;;;;;;5052773;28;20017;-81
2022/11/09 05:09:04;;;;;;;5.70;3.37;;;5.30;99.90;;;;;;5052888;28;20155;-81
2022/11/09 05:11:31;;;;;;;4.97;2.80;;;5.30;99.90;;;;;;5052411;28;20036;-81
2022/11/09 05:13:57;;;;;;;24.77;12.97;;;5.30;99.90;;;;;;5052681;28;20029;-81
2022/11/09 05:16:23;;;;;;;16.93;9.67;;;5.30;99.90;;;;;;5051980;28;20040;-81
2022/11/09 05:18:49;;;;;;;12.97;7.87;;;5.40;99.90;;;;;;5051372;28;20045;-81
2022/11/09 05:21:15;;;;;;;7.97;3.93;;;5.40;99.90;;;;;;5051880;28;20029;-81
2022/11/09 05:23:59;;;;;;;6.50;3.17;;;5.40;99.90;;;;;;5052156;28;20778;-81
2022/11/09 05:26:30;;;;;;;4.50;2.63;;;5.40;99.90;;;;;;5051475;28;20033;-81
2022/11/09 05:28:57;;;;;;;4.60;4.00;;;5.50;99.90;;;;;;5051815;28;20029;-81
2022/11/09 05:31:24;;;;;;;18.70;12.83;;;5.50;99.90;;;;;;5052004;28;20025;-81
2022/11/09 05:33:51;;;;;;;16.20;10.40;;;5.50;99.90;;;;;;5052148;28;20078;-81
2022/11/09 05:36:17;;;;;;;8.00;3.43;;;5.60;99.90;;;;;;5051761;28;20796;-81
2022/11/09 05:38:44;;;;;;;4.50;2.43;;;5.50;99.90;;;;;;5051830;28;20029;-81
2022/11/09 05:41:10;;;;;;;4.00;2.10;;;5.50;99.90;;;;;;5051575;28;20028;-81
2022/11/09 05:43:35;;;;;;;3.40;2.50;;;5.50;99.90;;;;;;5051306;28;20029;-81
2022/11/09 05:46:01;;;;;;;5.13;2.57;;;5.50;99.90;;;;;;5051488;28;20025;-81
2022/11/09 05:48:26;;;;;;;4.67;2.13;;;5.50;99.90;;;;;;5051644;28;20049;-81
2022/11/09 05:50:52;;;;;;;4.50;2.80;;;5.50;99.90;;;;;;5051276;28;20071;-81
2022/11/09 05:53:17;;;;;;;11.07;6.10;;;5.40;99.90;;;;;;5051349;28;20389;-81
2022/11/09 05:55:43;;;;;;;5.83;3.40;;;5.40;99.90;;;;;;5045113;28;20041;-81
2022/11/09 05:58:09;;;;;;;6.97;3.93;;;5.40;99.90;;;;;;5045352;28;20021;-81
2022/11/09 06:00:35;;;;;;;5.90;2.70;;;5.40;99.90;;;;;;5045389;28;20041;-81
2022/11/09 06:03:05;;;;;;;4.93;2.70;;;5.40;99.90;;;;;;5045097;28;20063;-81
2022/11/09 06:05:35;;;;;;;3.97;2.50;;;5.30;99.90;;;;;;5044829;28;20049;-81
2022/11/09 06:08:07;;;;;;;4.53;2.57;;;5.30;99.90;;;;;;5045647;28;20059;-81
2022/11/09 06:10:33;;;;;;;7.27;3.00;;;5.30;99.90;;;;;;5045423;28;20106;-83
2022/11/09 06:12:59;;;;;;;4.77;3.00;;;5.30;99.90;;;;;;5045389;28;20040;-81
2022/11/09 06:15:24;;;;;;;5.40;2.70;;;5.30;99.90;;;;;;5042593;28;20029;-81
2022/11/09 06:17:51;;;;;;;7.13;3.53;;;5.30;99.90;;;;;;5040666;28;20060;-81
2022/11/09 06:20:17;;;;;;;6.07;4.23;;;5.30;99.90;;;;;;5043404;28;20037;-81
2022/11/09 06:22:44;;;;;;;6.43;2.90;;;5.30;99.90;;;;;;5044986;28;20561;-81
2022/11/09 06:25:09;;;;;;;6.27;2.97;;;5.40;99.90;;;;;;5049168;28;20116;-81
2022/11/09 06:27:35;;;;;;;8.47;3.30;;;5.40;99.90;;;;;;5049039;28;20033;-81
2022/11/09 06:30:00;;;;;;;5.07;3.10;;;5.40;99.90;;;;;;5049849;28;20174;-81
2022/11/09 06:32:27;;;;;;;5.87;3.33;;;5.50;99.90;;;;;;5049043;28;20101;-81
2022/11/09 06:34:52;;;;;;;6.27;3.30;;;5.50;99.90;;;;;;5050785;28;20032;-81
2022/11/09 06:37:18;;;;;;;5.93;3.27;;;5.60;99.90;;;;;;5050259;28;20076;-81
2022/11/09 06:39:46;;;;;;;5.23;3.50;;;5.60;99.90;;;;;;5048500;28;20025;-81
2022/11/09 06:42:11;;;;;;;4.57;3.20;;;5.70;99.90;;;;;;5050517;28;20025;-81
2022/11/09 06:44:37;;;;;;;5.07;3.57;;;5.70;99.90;;;;;;5050638;28;20055;-81
2022/11/09 06:47:02;;;;;;;5.70;3.23;;;5.80;99.90;;;;;;5050145;28;20091;-81
2022/11/09 06:49:28;;;;;;;7.00;3.73;;;5.80;99.90;;;;;;5051327;28;20328;-81
2022/11/09 06:51:53;;;;;;;6.67;3.40;;;5.90;99.90;;;;;;5050255;28;20047;-81
2022/11/09 06:54:19;;;;;;;7.67;3.17;;;5.90;99.90;;;;;;5050137;28;20830;-81
2022/11/09 06:56:44;;;;;;;6.23;3.20;;;6.00;99.90;;;;;;5049669;28;20029;-81
2022/11/09 06:59:10;;;;;;;6.33;3.20;;;6.00;99.90;;;;;;5047602;28;20064;-81
2022/11/09 07:01:36;;;;;;;4.10;2.80;;;6.10;99.90;;;;;;5048762;28;20037;-81
2022/11/09 07:04:02;;;;;;;4.60;2.77;;;6.10;99.90;;;;;;5048947;28;20058;-82
2022/11/09 07:06:27;;;;;;;7.57;3.70;;;6.10;99.90;;;;;;5049333;28;20029;-82
2022/11/09 07:08:56;;;;;;;4.90;3.07;;;6.20;99.90;;;;;;5049529;28;20086;-82
2022/11/09 07:11:22;;;;;;;5.77;3.27;;;6.20;99.90;;;;;;5048469;28;20036;-82
2022/11/09 07:13:48;;;;;;;6.27;3.07;;;6.20;99.90;;;;;;5049086;28;20394;-82
2022/11/09 07:16:16;;;;;;;6.43;3.40;;;6.30;99.90;;;;;;5048694;28;20072;-82
2022/11/09 07:18:43;;;;;;;9.13;3.70;;;6.30;99.90;;;;;;5049407;28;20102;-82
2022/11/09 07:21:09;;;;;;;7.67;4.60;;;6.30;99.90;;;;;;5049366;28;20040;-82
2022/11/09 07:23:34;;;;;;;5.47;3.10;;;6.30;99.90;;;;;;5049643;28;20099;-82
2022/11/09 07:26:00;;;;;;;7.77;3.47;;;6.30;99.90;;;;;;5048954;28;20104;-82
2022/11/09 07:28:26;;;;;;;5.93;2.90;;;6.40;99.90;;;;;;5049955;28;20485;-82
2022/11/09 07:30:51;;;;;;;6.90;3.10;;;6.40;99.90;;;;;;5048163;28;20044;-82
2022/11/09 07:33:18;;;;;;;8.33;3.53;;;6.40;99.90;;;;;;5048078;28;20120;-82
2022/11/09 07:35:45;;;;;;;6.43;2.73;;;6.40;99.90;;;;;;5049408;28;20116;-82
2022/11/09 07:38:11;;;;;;;5.00;3.00;;;6.40;99.90;;;;;;5049283;28;20029;-82
2022/11/09 07:40:38;;;;;;;6.17;3.10;;;6.40;99.90;;;;;;5049302;28;20131;-82
2022/11/09 07:43:05;;;;;;;8.60;3.30;;;6.40;99.90;;;;;;5053487;28;20509;-82
2022/11/09 07:45:32;;;;;;;11.30;3.67;;;6.50;99.90;;;;;;5052025;28;20359;-82
2022/11/09 07:48:00;;;;;;;9.73;3.37;;;6.50;99.90;;;;;;5052863;28;20052;-82
2022/11/09 07:50:27;;;;;;;6.73;2.63;;;6.50;99.90;;;;;;5053520;28;20041;-82
2022/11/09 07:52:55;;;;;;;7.20;3.10;;;6.60;99.90;;;;;;5053128;28;20033;-82
2022/11/09 07:55:21;;;;;;;6.77;2.80;;;6.60;99.90;;;;;;5053645;28;20115;-82
2022/11/09 07:57:46;;;;;;;5.77;2.90;;;6.60;99.90;;;;;;5052997;28;20107;-82
2022/11/09 08:00:13;;;;;;;6.43;3.03;;;6.70;99.90;;;;;;5053345;28;20519;-82
2022/11/09 08:02:39;;;;;;;7.47;3.37;;;6.70;99.90;;;;;;5053020;28;20168;-82
2022/11/09 08:05:05;;;;;;;6.50;3.00;;;6.70;99.90;;;;;;5053269;28;20124;-82
2022/11/09 08:07:32;;;;;;;9.40;3.30;;;6.80;99.90;;;;;;5052760;28;20055;-82
2022/11/09 08:09:58;;;;;;;8.47;3.27;;;6.90;99.90;;;;;;5052662;28;20047;-82
2022/11/09 08:12:23;;;;;;;7.90;3.30;;;7.10;99.90;;;;;;5053207;28;20025;-82
2022/11/09 08:14:49;;;;;;;5.90;3.00;;;7.20;99.90;;;;;;5053420;28;20767;-82
2022/11/09 08:17:14;;;;;;;7.57;3.20;;;7.30;99.90;;;;;;5052325;28;20045;-82
2022/11/09 08:19:40;;;;;;;5.23;3.20;;;7.40;99.90;;;;;;5051086;28;20110;-82
2022/11/09 08:22:05;;;;;;;6.83;3.00;;;7.50;99.90;;;;;;5052220;28;20055;-82
2022/11/09 08:24:31;;;;;;;6.97;3.03;;;7.70;99.90;;;;;;5053012;28;20040;-82
2022/11/09 08:26:56;;;;;;;5.33;3.23;;;7.70;99.90;;;;;;5052817;28;20032;-82
2022/11/09 08:29:22;;;;;;;7.90;2.90;;;7.80;99.90;;;;;;5052519;28;20112;-82
2022/11/09 08:31:49;;;;;;;8.03;3.17;;;7.90;99.90;;;;;;5052178;28;20048;-82
2022/11/09 08:34:16;;;;;;;7.20;2.70;;;8.00;99.90;;;;;;5052848;28;20490;-82
2022/11/09 08:36:41;;;;;;;5.47;2.57;;;8.20;99.90;;;;;;5051794;28;20322;-82
2022/11/09 08:39:07;;;;;;;9.07;3.33;;;8.30;99.90;;;;;;5052817;28;20036;-82
2022/11/09 08:41:32;;;;;;;9.03;2.33;;;8.40;99.90;;;;;;5052545;28;20041;-82
2022/11/09 08:43:58;;;;;;;10.33;2.20;;;8.60;99.90;;;;;;5052353;28;20154;-82
2022/11/09 08:46:24;;;;;;;7.73;2.00;;;8.80;99.90;;;;;;5052818;28;20104;-82
2022/11/09 08:48:50;;;;;;;5.23;1.80;;;8.90;99.90;;;;;;5052463;28;20327;-82
2022/11/09 08:51:15;;;;;;;3.93;1.90;;;9.10;99.90;;;;;;5051774;28;20021;-82
2022/11/09 08:53:41;;;;;;;5.33;2.10;;;9.20;99.90;;;;;;5051029;28;20033;-82
2022/11/09 08:56:07;;;;;;;6.60;3.13;;;9.40;99.90;;;;;;5052326;28;20028;-82
2022/11/09 08:58:34;;;;;;;6.43;3.20;;;9.60;99.90;;;;;;5052362;28;20025;-82
2022/11/09 09:01:00;;;;;;;5.13;2.93;;;9.70;99.90;;;;;;5052391;28;20033;-82
2022/11/09 09:03:25;;;;;;;9.37;3.10;;;9.80;99.90;;;;;;5051179;28;20036;-82
2022/11/09 09:05:51;;;;;;;6.97;3.07;;;9.90;99.90;;;;;;5048958;28;20029;-82
2022/11/09 09:08:20;;;;;;;10.45;2.90;;;10.00;99.90;;;;;;5050637;28;20071;-82
2022/11/09 09:10:46;;;;;;;5.80;2.63;;;10.10;99.90;;;;;;5052076;28;20374;-82
2022/11/09 09:13:12;;;;;;;5.20;2.30;;;10.20;99.90;;;;;;5052022;28;20025;-82
2022/11/09 09:15:37;;;;;;;6.77;2.20;;;10.30;99.90;;;;;;5051997;28;20478;-82
2022/11/09 09:18:04;;;;;;;4.33;2.30;;;10.50;99.90;;;;;;5051907;28;20568;-82
2022/11/09 09:20:30;;;;;;;5.13;2.05;;;10.60;99.90;;;;;;5051576;28;20090;-82
2022/11/09 09:22:59;;;;;;;8.95;4.28;;;10.80;99.90;;;;;;5051295;28;20493;-82
2022/11/09 09:25:26;;;;;;;6.95;3.25;;;10.90;99.90;;;;;;5051113;28;20377;-82
2022/11/09 09:27:52;;;;;;;6.60;3.00;;;11.10;99.90;;;;;;5051145;28;20029;-83
2022/11/09 09:30:18;;;;;;;4.70;2.00;;;11.20;99.90;;;;;;5051923;28;20036;-82
2022/11/09 09:32:43;;;;;;;4.60;1.65;;;11.30;99.90;;;;;;5051521;28;20028;-82
2022/11/09 09:35:09;;;;;;;8.55;1.80;;;11.40;99.90;;;;;;5051677;28;20033;-83
2022/11/09 09:37:34;;;;;;;5.75;1.83;;;11.50;99.90;;;;;;5051421;28;20024;-82
2022/11/09 09:40:00;;;;;;;6.13;1.83;;;11.60;99.90;;;;;;5051631;28;20029;-82
2022/11/09 09:42:41;;;;;;;4.32;2.05;;;11.70;99.90;;;;;;5051055;28;20062;-82
2022/11/09 09:45:19;;;;;;;6.93;1.73;;;11.90;99.90;;;;;;5051655;28;20886;-82
2022/11/09 09:47:53;;;;;;;4.97;1.55;;;11.90;99.90;;;;;;5051269;28;20092;-82
2022/11/09 09:50:27;;;;;;;5.70;1.90;;;12.00;99.90;;;;;;5051489;28;20021;-82
2022/11/09 09:52:59;;;;;;;5.77;1.67;;;12.00;99.90;;;;;;5050292;28;20126;-82
2022/11/09 09:55:43;;;;;;;3.25;1.60;;;12.20;99.90;;;;;;5048045;28;20021;-82
2022/11/09 09:58:22;;;;;;;5.78;1.67;;;12.40;99.90;;;;;;5048770;28;20056;-82
2022/11/09 10:00:53;;;;;;;2.78;1.60;;;12.70;99.90;;;;;;5045991;28;20111;-82
2022/11/09 10:03:20;;;;;;;4.78;1.70;;;12.90;99.90;;;;;;5051016;28;20790;-82
2022/11/09 10:06:24;;;;;;;9.45;2.10;;;13.10;99.90;;;;;;5052415;28;20701;-82
2022/11/09 10:09:22;;;;;;;10.05;1.90;;;13.30;99.90;;;;;;5025294;28;20041;-81
2022/11/09 10:12:06;;;;;;;5.68;1.73;;;13.50;99.90;;;;;;5032388;28;20116;-81
2022/11/09 10:14:47;;;;;;;5.38;1.90;;;13.50;99.90;;;;;;5051758;28;20025;-81
2022/11/09 10:17:34;;;;;;;9.38;2.10;;;13.60;99.90;;;;;;5052215;28;20047;-81
2022/11/09 10:20:12;;;;;;;8.35;2.30;;;13.60;99.90;;;;;;5052788;28;20028;-81
2022/11/09 10:22:57;;;;;;;6.40;2.00;;;13.60;99.90;;;;;;5052981;28;20028;-81
2022/11/09 10:25:25;;;;;;;3.65;1.90;;;13.60;99.90;;;;;;5053173;28;20087;-81
2022/11/09 10:27:55;;;;;;;10.98;2.03;;;13.60;99.90;;;;;;5052368;28;20061;-81
2022/11/09 10:30:22;;;;;;;6.35;1.73;;;13.60;99.90;;;;;;5053084;28;20100;-81
2022/11/09 10:32:53;;;;;;;5.05;2.25;;;13.60;99.90;;;;;;5053072;28;20032;-81
2022/11/09 10:35:31;;;;;;;7.43;1.90;;;13.70;99.90;;;;;;5052953;28;20025;-81
2022/11/09 10:37:57;;;;;;;4.18;1.63;;;13.70;99.90;;;;;;5052999;28;20099;-81
2022/11/09 10:40:33;;;;;;;6.68;2.35;;;13.90;99.90;;;;;;5053540;28;20025;-81
2022/11/09 10:43:01;;;;;;;6.20;1.90;;;14.00;99.90;;;;;;5053067;28;20021;-81
2022/11/09 10:45:41;;;;;;;4.57;1.88;;;14.10;99.90;;;;;;5053039;28;20099;-81
2022/11/09 10:48:08;;;;;;;4.40;2.00;;;14.20;99.90;;;;;;5052935;28;20035;-82
2022/11/09 10:50:47;;;;;;;6.22;1.60;;;14.30;99.90;;;;;;5053089;28;20056;-81
2022/11/09 10:53:14;;;;;;;5.28;1.45;;;14.40;99.90;;;;;;5051065;28;20135;-82
2022/11/09 10:56:05;;;;;;;3.78;1.75;;;14.50;99.90;;;;;;5052866;28;20098;-82
2022/11/09 10:58:53;;;;;;;3.03;1.30;;;14.60;99.90;;;;;;5052810;28;20169;-81
2022/11/09 11:01:23;;;;;;;3.72;1.40;;;14.80;99.90;;;;;;5053422;28;20041;-81
2022/11/09 11:03:54;;;;;;;2.75;1.25;;;14.90;99.90;;;;;;5052740;28;20036;-81
2022/11/09 11:06:20;;;;;;;6.57;1.70;;;15.10;99.90;;;;;;5051548;28;20116;-82
2022/11/09 11:08:50;;;;;;;4.00;1.67;;;15.20;99.90;;;;;;5052917;28;20060;-82
2022/11/09 11:11:23;;;;;;;2.72;1.33;;;15.30;99.90;;;;;;5052660;28;20033;-81
2022/11/09 11:13:52;;;;;;;3.90;1.48;;;15.30;99.90;;;;;;5052686;28;20025;-82
2022/11/09 11:16:33;;;;;;;2.60;1.60;;;15.30;99.90;;;;;;5052384;28;20037;-82
2022/11/09 11:18:59;;;;;;;6.65;1.63;;;15.40;99.90;;;;;;5052110;28;20548;-82
2022/11/09 11:21:25;;;;;;;4.18;1.50;;;15.40;99.90;;;;;;5052507;28;20029;-81
2022/11/09 11:24:11;;;;;;;3.50;1.60;;;15.50;99.90;;;;;;5052895;28;20609;-81
2022/11/09 11:26:39;;;;;;;;;;;15.50;99.90;;;;;;5053429;28;20028;-82
2022/11/09 11:29:19;;;;;;;3.25;1.38;;;15.60;99.90;;;;;;5052658;28;19900;-81
2022/11/09 11:31:44;;;;;;;3.25;1.58;;;15.60;99.90;;;;;;5052717;28;20047;-82
2022/11/09 11:34:13;;;;;;;3.63;1.67;;;15.60;99.90;;;;;;5053148;28;20463;-81
2022/11/09 11:36:44;;;;;;;4.75;1.65;;;15.60;99.90;;;;;;5051227;28;20056;-82
2022/11/09 11:39:42;;;;;;;5.05;1.75;;;15.70;99.90;;;;;;5052599;28;20071;-82
2022/11/09 11:42:39;;;;;;;4.20;1.60;;;15.70;99.90;;;;;;5052969;28;20025;-82
2022/11/09 11:45:07;;;;;;;4.40;1.85;;;15.90;99.90;;;;;;5052672;28;20021;-82
2022/11/09 11:47:52;;;;;;;5.55;1.70;;;15.90;99.90;;;;;;5052408;28;20025;-82
2022/11/09 11:50:34;;;;;;;3.93;2.20;;;16.00;99.90;;;;;;5048572;28;20028;-82
2022/11/09 11:53:20;;;;;;;3.38;1.70;;;16.20;99.90;;;;;;5049186;28;20276;-82
2022/11/09 11:56:20;;;;;;;6.53;2.60;;;16.20;99.90;;;;;;5047623;28;20029;-82
2022/11/09 11:59:31;;;;;;;3.25;1.60;;;16.30;99.90;;;;;;5047635;28;20473;-82
2022/11/09 12:02:03;;;;;;;2.55;1.70;;;16.50;99.90;;;;;;5048818;28;20021;-82
2022/11/09 12:04:59;;;;;;;4.25;1.80;;;16.70;99.90;;;;;;5049046;28;20033;-82
2022/11/09 12:07:58;;;;;;;4.15;2.25;;;16.70;99.90;;;;;;5049226;28;20024;-82
2022/11/09 12:10:23;;;;;;;5.00;1.85;;;16.70;99.90;;;;;;5046354;28;20044;-82
2022/11/09 12:13:27;;;;;;;4.30;1.80;;;16.60;99.90;;;;;;5049363;28;20037;-82
2022/11/09 12:16:03;;;;;;;4.50;1.63;;;16.70;99.90;;;;;;5048837;28;20048;-82
2022/11/09 12:18:56;;;;;;;5.07;1.85;;;16.60;99.90;;;;;;5049148;28;20506;-82
2022/11/09 12:21:43;;;;;;;3.78;1.80;;;16.50;99.90;;;;;;5028015;28;20038;-82
2022/11/09 12:24:35;;;;;;;2.78;1.52;;;16.40;99.90;;;;;;5046305;28;20398;-83
2022/11/09 12:27:49;;;;;;;4.88;1.50;;;16.30;99.90;;;;;;5048550;28;20040;-83
2022/11/09 12:30:20;;;;;;;4.65;1.90;;;16.30;99.90;;;;;;5052695;28;20444;-82
2022/11/09 12:33:18;;;;;;;3.55;1.88;;;16.40;99.90;;;;;;5051534;28;20068;-82
2022/11/09 12:36:02;;;;;;;2.25;1.42;;;16.40;99.90;;;;;;5050250;28;20072;-82
2022/11/09 12:39:00;;;;;;;1.80;1.38;;;16.30;99.90;;;;;;5052160;28;20033;-82
2022/11/09 12:41:32;;;;;;;2.28;1.40;;;16.20;99.90;;;;;;5052184;28;20029;-82
2022/11/09 12:44:05;;;;;;;3.80;1.48;;;16.10;99.90;;;;;;5052713;28;20067;-82
2022/11/09 12:47:02;;;;;;;3.50;1.20;;;16.00;99.90;;;;;;5051268;28;20040;-83
2022/11/09 12:49:38;;;;;;;3.45;1.38;;;15.90;99.90;;;;;;5039787;28;20346;-82
2022/11/09 12:52:06;;;;;;;5.05;1.65;;;15.80;99.90;;;;;;5052026;28;20025;-82
2022/11/09 12:54:34;;;;;;;3.75;1.40;;;15.70;99.90;;;;;;5052166;28;20469;-82
2022/11/09 12:57:07;;;;;;;7.20;1.80;;;15.60;99.90;;;;;;5052678;28;20323;-83
2022/11/09 12:59:35;;;;;;;2.65;1.30;;;15.60;99.90;;;;;;5052706;28;20029;-82
2022/11/09 13:02:03;;;;;;;2.88;1.27;;;15.50;99.90;;;;;;5052561;28;20057;-82
2022/11/09 13:04:29;;;;;;;4.18;1.42;;;15.40;99.90;;;;;;5052636;28;20037;-83
2022/11/09 13:07:12;;;;;;;5.57;1.55;;;15.40;99.90;;;;;;5052698;28;20036;-83